sensor_id;sensor_type;location;lat;lon;timestamp;temperature;humidity
18085;DHT22;9169;44.492;11.372;2023-03-31T00:01:30;18.60;35.70
18085;DHT22;9169;44.492;11.372;2023-03-31T00:04:00;18.50;35.70
18085;DHT22;9169;44.492;11.372;2023-03-31T00:06:34;18.60;35.80
18085;DHT22;9169;44.492;11.372;2023-03-31T00:09:05;18.60;35.90
18085;DHT22;9169;44.492;11.372;2023-03-31T00:11:35;18.60;35.90
18085;DHT22;9169;44.492;11.372;2023-03-31T00:14:04;18.60;35.90
18085;DHT22;9169;44.492;11.372;2023-03-31T00:16:34;18.60;36.00
18085;DHT22;9169;44.492;11.372;2023-03-31T00:19:03;18.60;36.00
18085;DHT22;9169;44.492;11.372;2023-03-31T00:21:34;18.60;35.90
18085;DHT22;9169;44.492;11.372;2023-03-31T00:24:05;18.70;36.00
18085;DHT22;9169;44.492;11.372;2023-03-31T00:26:34;18.70;36.00
18085;DHT22;9169;44.492;11.372;2023-03-31T00:29:03;18.70;36.00
18085;DHT22;9169;44.492;11.372;2023-03-31T00:31:32;18.70;36.10
18085;DHT22;9169;44.492;11.372;2023-03-31T00:34:02;18.60;36.20
18085;DHT22;9169;44.492;11.372;2023-03-31T00:36:34;18.60;36.00
18085;DHT22;9169;44.492;11.372;2023-03-31T00:39:15;18.70;36.10
18085;DHT22;9169;44.492;11.372;2023-03-31T00:41:44;18.70;36.10
18085;DHT22;9169;44.492;11.372;2023-03-31T00:44:14;18.70;36.10
18085;DHT22;9169;44.492;11.372;2023-03-31T00:46:50;18.70;36.30
18085;DHT22;9169;44.492;11.372;2023-03-31T00:49:24;18.60;36.40
18085;DHT22;9169;44.492;11.372;2023-03-31T00:52:00;18.70;36.40
18085;DHT22;9169;44.492;11.372;2023-03-31T00:54:30;18.70;36.40
18085;DHT22;9169;44.492;11.372;2023-03-31T00:57:00;18.70;36.30
18085;DHT22;9169;44.492;11.372;2023-03-31T00:59:36;18.60;36.20
18085;DHT22;9169;44.492;11.372;2023-03-31T01:02:07;18.70;36.40
18085;DHT22;9169;44.492;11.372;2023-03-31T01:04:40;18.70;36.30
18085;DHT22;9169;44.492;11.372;2023-03-31T01:07:18;18.70;36.30
18085;DHT22;9169;44.492;11.372;2023-03-31T01:09:49;18.60;36.40
18085;DHT22;9169;44.492;11.372;2023-03-31T01:12:21;18.60;36.30
18085;DHT22;9169;44.492;11.372;2023-03-31T01:14:50;18.60;36.40
18085;DHT22;9169;44.492;11.372;2023-03-31T01:17:19;18.60;36.40
18085;DHT22;9169;44.492;11.372;2023-03-31T01:20:04;18.60;36.60
18085;DHT22;9169;44.492;11.372;2023-03-31T01:23:15;18.60;36.70
18085;DHT22;9169;44.492;11.372;2023-03-31T01:26:35;18.60;36.90
18085;DHT22;9169;44.492;11.372;2023-03-31T01:29:19;18.50;37.00
18085;DHT22;9169;44.492;11.372;2023-03-31T01:32:21;18.50;36.80
18085;DHT22;9169;44.492;11.372;2023-03-31T01:35:15;18.40;37.00
18085;DHT22;9169;44.492;11.372;2023-03-31T01:38:23;18.40;36.90
18085;DHT22;9169;44.492;11.372;2023-03-31T01:41:10;18.40;37.10
18085;DHT22;9169;44.492;11.372;2023-03-31T01:43:47;18.40;37.10
18085;DHT22;9169;44.492;11.372;2023-03-31T01:46:26;18.40;36.90
18085;DHT22;9169;44.492;11.372;2023-03-31T01:49:01;18.40;36.90
18085;DHT22;9169;44.492;11.372;2023-03-31T01:51:36;18.40;37.10
18085;DHT22;9169;44.492;11.372;2023-03-31T01:54:14;18.30;36.90
18085;DHT22;9169;44.492;11.372;2023-03-31T01:56:50;18.30;37.10
18085;DHT22;9169;44.492;11.372;2023-03-31T01:59:24;18.30;37.10
18085;DHT22;9169;44.492;11.372;2023-03-31T02:01:57;18.30;37.10
18085;DHT22;9169;44.492;11.372;2023-03-31T02:04:30;18.30;37.10
18085;DHT22;9169;44.492;11.372;2023-03-31T02:07:03;18.30;37.10
18085;DHT22;9169;44.492;11.372;2023-03-31T02:09:37;18.40;37.20
18085;DHT22;9169;44.492;11.372;2023-03-31T02:12:10;18.30;37.20
18085;DHT22;9169;44.492;11.372;2023-03-31T02:14:42;18.30;37.30
18085;DHT22;9169;44.492;11.372;2023-03-31T02:17:16;18.30;37.30
18085;DHT22;9169;44.492;11.372;2023-03-31T02:19:52;18.30;37.50
18085;DHT22;9169;44.492;11.372;2023-03-31T02:22:22;18.30;37.40
18085;DHT22;9169;44.492;11.372;2023-03-31T02:24:52;18.20;37.40
18085;DHT22;9169;44.492;11.372;2023-03-31T02:27:25;18.20;37.60
18085;DHT22;9169;44.492;11.372;2023-03-31T02:29:56;18.10;37.50
18085;DHT22;9169;44.492;11.372;2023-03-31T02:32:30;18.10;37.70
18085;DHT22;9169;44.492;11.372;2023-03-31T02:34:59;18.10;37.80
18085;DHT22;9169;44.492;11.372;2023-03-31T02:37:29;18.10;37.80
18085;DHT22;9169;44.492;11.372;2023-03-31T02:40:00;18.00;37.90
18085;DHT22;9169;44.492;11.372;2023-03-31T02:42:32;18.00;38.00
18085;DHT22;9169;44.492;11.372;2023-03-31T02:45:02;18.00;38.10
18085;DHT22;9169;44.492;11.372;2023-03-31T02:47:31;18.00;38.10
18085;DHT22;9169;44.492;11.372;2023-03-31T02:50:02;18.00;38.10
18085;DHT22;9169;44.492;11.372;2023-03-31T02:52:40;17.90;38.10
18085;DHT22;9169;44.492;11.372;2023-03-31T02:58:20;17.90;38.20
18085;DHT22;9169;44.492;11.372;2023-03-31T03:01:05;17.90;38.30
18085;DHT22;9169;44.492;11.372;2023-03-31T03:03:42;17.90;38.30
18085;DHT22;9169;44.492;11.372;2023-03-31T03:06:23;17.90;38.40
18085;DHT22;9169;44.492;11.372;2023-03-31T03:09:09;17.80;38.30
18085;DHT22;9169;44.492;11.372;2023-03-31T03:11:45;17.80;38.50
18085;DHT22;9169;44.492;11.372;2023-03-31T03:14:23;17.70;38.50
18085;DHT22;9169;44.492;11.372;2023-03-31T03:16:58;17.70;38.50
18085;DHT22;9169;44.492;11.372;2023-03-31T03:19:27;17.70;38.70
18085;DHT22;9169;44.492;11.372;2023-03-31T03:21:57;17.70;38.70
18085;DHT22;9169;44.492;11.372;2023-03-31T03:24:26;17.70;38.80
18085;DHT22;9169;44.492;11.372;2023-03-31T03:26:55;17.70;38.80
18085;DHT22;9169;44.492;11.372;2023-03-31T03:29:26;17.70;38.90
18085;DHT22;9169;44.492;11.372;2023-03-31T03:31:54;17.70;38.90
18085;DHT22;9169;44.492;11.372;2023-03-31T03:34:23;17.70;38.90
18085;DHT22;9169;44.492;11.372;2023-03-31T03:36:53;17.70;39.00
18085;DHT22;9169;44.492;11.372;2023-03-31T03:39:22;17.70;38.90
18085;DHT22;9169;44.492;11.372;2023-03-31T03:41:50;17.70;38.90
18085;DHT22;9169;44.492;11.372;2023-03-31T03:44:19;17.70;39.20
18085;DHT22;9169;44.492;11.372;2023-03-31T03:46:49;17.70;39.20
18085;DHT22;9169;44.492;11.372;2023-03-31T03:49:18;17.60;39.50
18085;DHT22;9169;44.492;11.372;2023-03-31T03:51:47;17.60;39.50
18085;DHT22;9169;44.492;11.372;2023-03-31T03:54:16;17.60;39.70
18085;DHT22;9169;44.492;11.372;2023-03-31T03:56:44;17.60;39.70
18085;DHT22;9169;44.492;11.372;2023-03-31T03:59:13;17.60;39.80
18085;DHT22;9169;44.492;11.372;2023-03-31T04:01:42;17.60;39.80
18085;DHT22;9169;44.492;11.372;2023-03-31T04:04:12;17.60;39.70
18085;DHT22;9169;44.492;11.372;2023-03-31T04:06:41;17.60;39.60
18085;DHT22;9169;44.492;11.372;2023-03-31T04:09:12;17.60;39.40
18085;DHT22;9169;44.492;11.372;2023-03-31T04:11:40;17.60;39.60
18085;DHT22;9169;44.492;11.372;2023-03-31T04:14:09;17.60;39.70
18085;DHT22;9169;44.492;11.372;2023-03-31T04:16:38;17.60;39.60
18085;DHT22;9169;44.492;11.372;2023-03-31T04:19:06;17.60;39.70
18085;DHT22;9169;44.492;11.372;2023-03-31T04:21:39;17.60;39.60
18085;DHT22;9169;44.492;11.372;2023-03-31T04:24:12;17.60;39.60
18085;DHT22;9169;44.492;11.372;2023-03-31T04:26:42;17.50;39.70
18085;DHT22;9169;44.492;11.372;2023-03-31T04:29:11;17.60;39.90
18085;DHT22;9169;44.492;11.372;2023-03-31T04:31:40;17.60;39.80
18085;DHT22;9169;44.492;11.372;2023-03-31T04:34:11;17.60;39.90
18085;DHT22;9169;44.492;11.372;2023-03-31T04:36:44;17.60;39.70
18085;DHT22;9169;44.492;11.372;2023-03-31T04:39:15;17.50;39.70
18085;DHT22;9169;44.492;11.372;2023-03-31T04:41:44;17.50;39.80
18085;DHT22;9169;44.492;11.372;2023-03-31T04:44:12;17.40;39.90
18085;DHT22;9169;44.492;11.372;2023-03-31T04:46:41;17.40;39.90
18085;DHT22;9169;44.492;11.372;2023-03-31T04:49:10;17.30;39.90
18085;DHT22;9169;44.492;11.372;2023-03-31T04:51:38;17.30;39.70
18085;DHT22;9169;44.492;11.372;2023-03-31T04:54:08;17.20;39.60
18085;DHT22;9169;44.492;11.372;2023-03-31T04:56:37;17.20;39.80
18085;DHT22;9169;44.492;11.372;2023-03-31T04:59:06;17.20;39.70
18085;DHT22;9169;44.492;11.372;2023-03-31T05:01:35;17.20;40.00
18085;DHT22;9169;44.492;11.372;2023-03-31T05:04:04;17.20;39.90
18085;DHT22;9169;44.492;11.372;2023-03-31T05:06:33;17.10;39.70
18085;DHT22;9169;44.492;11.372;2023-03-31T05:09:01;17.10;39.70
18085;DHT22;9169;44.492;11.372;2023-03-31T05:11:31;17.20;39.90
18085;DHT22;9169;44.492;11.372;2023-03-31T05:14:00;17.10;40.10
18085;DHT22;9169;44.492;11.372;2023-03-31T05:16:29;17.10;40.10
18085;DHT22;9169;44.492;11.372;2023-03-31T05:18:58;17.10;40.10
18085;DHT22;9169;44.492;11.372;2023-03-31T05:21:27;17.00;40.00
18085;DHT22;9169;44.492;11.372;2023-03-31T05:23:57;17.10;39.90
18085;DHT22;9169;44.492;11.372;2023-03-31T05:26:26;17.10;40.00
18085;DHT22;9169;44.492;11.372;2023-03-31T05:28:56;17.10;40.10
18085;DHT22;9169;44.492;11.372;2023-03-31T05:31:25;17.10;40.30
18085;DHT22;9169;44.492;11.372;2023-03-31T05:33:54;17.10;40.30
18085;DHT22;9169;44.492;11.372;2023-03-31T05:36:23;17.10;40.60
18085;DHT22;9169;44.492;11.372;2023-03-31T05:38:53;17.10;40.70
18085;DHT22;9169;44.492;11.372;2023-03-31T05:41:22;17.10;40.60
18085;DHT22;9169;44.492;11.372;2023-03-31T05:43:50;17.10;40.50
18085;DHT22;9169;44.492;11.372;2023-03-31T05:46:20;17.10;40.60
18085;DHT22;9169;44.492;11.372;2023-03-31T05:48:50;17.10;40.90
18085;DHT22;9169;44.492;11.372;2023-03-31T05:51:18;17.20;40.80
18085;DHT22;9169;44.492;11.372;2023-03-31T05:53:47;17.20;40.90
18085;DHT22;9169;44.492;11.372;2023-03-31T05:56:16;17.20;41.00
18085;DHT22;9169;44.492;11.372;2023-03-31T05:58:44;17.20;41.10
18085;DHT22;9169;44.492;11.372;2023-03-31T06:01:15;17.20;41.00
18085;DHT22;9169;44.492;11.372;2023-03-31T06:03:50;17.20;41.10
18085;DHT22;9169;44.492;11.372;2023-03-31T06:06:19;17.20;41.10
18085;DHT22;9169;44.492;11.372;2023-03-31T06:08:48;17.30;41.10
18085;DHT22;9169;44.492;11.372;2023-03-31T06:11:19;17.30;41.00
18085;DHT22;9169;44.492;11.372;2023-03-31T06:13:48;17.40;41.10
18085;DHT22;9169;44.492;11.372;2023-03-31T06:16:17;17.40;41.10
18085;DHT22;9169;44.492;11.372;2023-03-31T06:18:46;17.40;41.20
18085;DHT22;9169;44.492;11.372;2023-03-31T06:21:17;17.40;41.60
18085;DHT22;9169;44.492;11.372;2023-03-31T06:23:47;17.40;41.70
18085;DHT22;9169;44.492;11.372;2023-03-31T06:26:17;17.40;41.70
18085;DHT22;9169;44.492;11.372;2023-03-31T06:28:46;17.40;41.90
18085;DHT22;9169;44.492;11.372;2023-03-31T06:31:16;17.40;41.90
18085;DHT22;9169;44.492;11.372;2023-03-31T06:33:46;17.50;41.70
18085;DHT22;9169;44.492;11.372;2023-03-31T06:36:17;17.50;41.70
18085;DHT22;9169;44.492;11.372;2023-03-31T06:38:48;17.50;41.70
18085;DHT22;9169;44.492;11.372;2023-03-31T06:41:17;17.50;41.70
18085;DHT22;9169;44.492;11.372;2023-03-31T06:43:47;17.60;42.40
18085;DHT22;9169;44.492;11.372;2023-03-31T06:46:18;17.60;41.80
18085;DHT22;9169;44.492;11.372;2023-03-31T06:48:47;17.60;41.70
18085;DHT22;9169;44.492;11.372;2023-03-31T06:51:17;17.70;41.90
18085;DHT22;9169;44.492;11.372;2023-03-31T06:53:46;17.70;41.70
18085;DHT22;9169;44.492;11.372;2023-03-31T06:56:15;17.80;41.80
18085;DHT22;9169;44.492;11.372;2023-03-31T06:58:43;17.80;41.60
18085;DHT22;9169;44.492;11.372;2023-03-31T07:01:12;17.90;41.60
18085;DHT22;9169;44.492;11.372;2023-03-31T07:03:40;17.90;41.60
18085;DHT22;9169;44.492;11.372;2023-03-31T07:06:09;18.00;41.80
18085;DHT22;9169;44.492;11.372;2023-03-31T07:08:39;18.00;41.80
18085;DHT22;9169;44.492;11.372;2023-03-31T07:11:09;18.00;41.80
18085;DHT22;9169;44.492;11.372;2023-03-31T07:13:38;18.10;41.60
18085;DHT22;9169;44.492;11.372;2023-03-31T07:16:07;18.10;41.40
18085;DHT22;9169;44.492;11.372;2023-03-31T07:18:37;18.20;41.60
18085;DHT22;9169;44.492;11.372;2023-03-31T07:21:08;18.20;41.50
18085;DHT22;9169;44.492;11.372;2023-03-31T07:23:38;18.30;42.00
18085;DHT22;9169;44.492;11.372;2023-03-31T07:26:07;18.30;41.60
18085;DHT22;9169;44.492;11.372;2023-03-31T07:28:36;18.40;41.70
18085;DHT22;9169;44.492;11.372;2023-03-31T07:31:10;18.30;41.40
18085;DHT22;9169;44.492;11.372;2023-03-31T07:33:39;18.40;41.70
18085;DHT22;9169;44.492;11.372;2023-03-31T07:36:08;18.50;41.70
18085;DHT22;9169;44.492;11.372;2023-03-31T07:38:41;18.50;41.60
18085;DHT22;9169;44.492;11.372;2023-03-31T07:41:11;18.50;41.50
18085;DHT22;9169;44.492;11.372;2023-03-31T07:43:41;18.60;41.60
18085;DHT22;9169;44.492;11.372;2023-03-31T07:46:15;18.60;41.40
18085;DHT22;9169;44.492;11.372;2023-03-31T07:48:44;18.60;41.60
18085;DHT22;9169;44.492;11.372;2023-03-31T07:51:18;18.60;41.60
18085;DHT22;9169;44.492;11.372;2023-03-31T07:53:49;18.60;41.40
18085;DHT22;9169;44.492;11.372;2023-03-31T07:56:20;18.60;41.40
18085;DHT22;9169;44.492;11.372;2023-03-31T07:58:49;18.60;41.60
18085;DHT22;9169;44.492;11.372;2023-03-31T08:01:20;18.70;41.70
18085;DHT22;9169;44.492;11.372;2023-03-31T08:03:52;18.70;41.70
18085;DHT22;9169;44.492;11.372;2023-03-31T08:06:24;18.70;41.60
18085;DHT22;9169;44.492;11.372;2023-03-31T08:08:56;18.80;41.70
18085;DHT22;9169;44.492;11.372;2023-03-31T08:11:25;18.80;41.70
18085;DHT22;9169;44.492;11.372;2023-03-31T08:13:54;18.90;41.60
18085;DHT22;9169;44.492;11.372;2023-03-31T08:16:22;19.00;41.60
18085;DHT22;9169;44.492;11.372;2023-03-31T08:18:52;19.10;41.40
18085;DHT22;9169;44.492;11.372;2023-03-31T08:21:21;19.20;42.00
18085;DHT22;9169;44.492;11.372;2023-03-31T08:23:52;19.20;41.40
18085;DHT22;9169;44.492;11.372;2023-03-31T08:26:23;19.30;41.30
18085;DHT22;9169;44.492;11.372;2023-03-31T08:28:52;19.40;41.20
18085;DHT22;9169;44.492;11.372;2023-03-31T08:31:21;19.50;41.10
18085;DHT22;9169;44.492;11.372;2023-03-31T08:33:53;19.50;41.10
18085;DHT22;9169;44.492;11.372;2023-03-31T08:36:22;19.50;41.00
18085;DHT22;9169;44.492;11.372;2023-03-31T08:38:51;19.50;41.10
18085;DHT22;9169;44.492;11.372;2023-03-31T08:41:31;19.50;41.10
18085;DHT22;9169;44.492;11.372;2023-03-31T08:44:05;19.60;41.30
18085;DHT22;9169;44.492;11.372;2023-03-31T08:46:36;19.60;41.20
18085;DHT22;9169;44.492;11.372;2023-03-31T08:49:12;19.70;41.30
18085;DHT22;9169;44.492;11.372;2023-03-31T08:51:46;19.70;41.60
18085;DHT22;9169;44.492;11.372;2023-03-31T08:54:20;19.70;42.20
18085;DHT22;9169;44.492;11.372;2023-03-31T08:56:54;19.80;41.60
18085;DHT22;9169;44.492;11.372;2023-03-31T08:59:26;19.80;41.50
18085;DHT22;9169;44.492;11.372;2023-03-31T09:02:00;20.00;41.70
18085;DHT22;9169;44.492;11.372;2023-03-31T09:04:48;20.00;41.50
18085;DHT22;9169;44.492;11.372;2023-03-31T09:07:24;20.10;41.40
18085;DHT22;9169;44.492;11.372;2023-03-31T09:10:02;20.20;41.30
18085;DHT22;9169;44.492;11.372;2023-03-31T09:12:47;20.20;41.30
18085;DHT22;9169;44.492;11.372;2023-03-31T09:15:25;20.20;41.30
18085;DHT22;9169;44.492;11.372;2023-03-31T09:17:58;20.20;41.30
18085;DHT22;9169;44.492;11.372;2023-03-31T09:20:33;20.20;41.30
18085;DHT22;9169;44.492;11.372;2023-03-31T09:23:16;20.30;41.40
18085;DHT22;9169;44.492;11.372;2023-03-31T09:25:48;20.40;41.50
18085;DHT22;9169;44.492;11.372;2023-03-31T09:28:21;20.60;45.60
18085;DHT22;9169;44.492;11.372;2023-03-31T09:30:50;20.70;48.30
18085;DHT22;9169;44.492;11.372;2023-03-31T09:33:24;20.70;49.00
18085;DHT22;9169;44.492;11.372;2023-03-31T09:35:54;20.70;51.00
18085;DHT22;9169;44.492;11.372;2023-03-31T09:38:27;20.60;42.40
18085;DHT22;9169;44.492;11.372;2023-03-31T09:40:58;21.10;41.80
18085;DHT22;9169;44.492;11.372;2023-03-31T09:46:40;21.70;41.60
18085;DHT22;9169;44.492;11.372;2023-03-31T09:49:21;21.90;41.30
18085;DHT22;9169;44.492;11.372;2023-03-31T09:52:25;22.00;41.10
18085;DHT22;9169;44.492;11.372;2023-03-31T09:54:58;22.20;41.20
18085;DHT22;9169;44.492;11.372;2023-03-31T09:57:30;22.40;41.10
18085;DHT22;9169;44.492;11.372;2023-03-31T10:00:05;22.70;41.00
18085;DHT22;9169;44.492;11.372;2023-03-31T10:02:48;23.00;41.00
18085;DHT22;9169;44.492;11.372;2023-03-31T10:05:30;23.40;40.90
18085;DHT22;9169;44.492;11.372;2023-03-31T10:08:33;23.60;40.50
18085;DHT22;9169;44.492;11.372;2023-03-31T10:11:09;23.90;40.20
18085;DHT22;9169;44.492;11.372;2023-03-31T10:13:47;24.10;40.00
18085;DHT22;9169;44.492;11.372;2023-03-31T10:16:22;24.30;39.90
18085;DHT22;9169;44.492;11.372;2023-03-31T10:18:52;24.50;39.70
18085;DHT22;9169;44.492;11.372;2023-03-31T10:21:23;24.70;39.40
18085;DHT22;9169;44.492;11.372;2023-03-31T10:23:53;24.60;39.10
18085;DHT22;9169;44.492;11.372;2023-03-31T10:26:26;24.50;39.10
18085;DHT22;9169;44.492;11.372;2023-03-31T10:28:55;24.30;38.80
18085;DHT22;9169;44.492;11.372;2023-03-31T10:31:25;24.10;38.60
18085;DHT22;9169;44.492;11.372;2023-03-31T10:33:56;24.00;38.40
18085;DHT22;9169;44.492;11.372;2023-03-31T10:36:27;23.80;38.50
18085;DHT22;9169;44.492;11.372;2023-03-31T10:38:57;23.70;38.50
18085;DHT22;9169;44.492;11.372;2023-03-31T10:41:28;23.60;38.60
18085;DHT22;9169;44.492;11.372;2023-03-31T10:43:58;23.60;39.10
18085;DHT22;9169;44.492;11.372;2023-03-31T10:46:41;23.80;39.50
18085;DHT22;9169;44.492;11.372;2023-03-31T10:49:23;24.10;39.40
18085;DHT22;9169;44.492;11.372;2023-03-31T10:51:53;24.30;39.30
18085;DHT22;9169;44.492;11.372;2023-03-31T10:54:22;24.50;39.20
18085;DHT22;9169;44.492;11.372;2023-03-31T10:56:53;24.70;39.10
18085;DHT22;9169;44.492;11.372;2023-03-31T10:59:41;24.70;38.70
18085;DHT22;9169;44.492;11.372;2023-03-31T11:02:38;24.60;38.00
18085;DHT22;9169;44.492;11.372;2023-03-31T11:05:15;24.50;38.20
18085;DHT22;9169;44.492;11.372;2023-03-31T11:07:58;24.40;38.20
18085;DHT22;9169;44.492;11.372;2023-03-31T11:10:42;24.30;38.30
18085;DHT22;9169;44.492;11.372;2023-03-31T11:13:20;24.20;38.20
18085;DHT22;9169;44.492;11.372;2023-03-31T11:16:00;24.20;38.40
18085;DHT22;9169;44.492;11.372;2023-03-31T11:18:45;24.60;39.00
18085;DHT22;9169;44.492;11.372;2023-03-31T11:21:22;25.40;39.10
18085;DHT22;9169;44.492;11.372;2023-03-31T11:24:00;26.30;38.00
18085;DHT22;9169;44.492;11.372;2023-03-31T11:26:39;27.00;37.50
18085;DHT22;9169;44.492;11.372;2023-03-31T11:29:21;27.50;36.90
18085;DHT22;9169;44.492;11.372;2023-03-31T11:32:11;27.80;36.00
18085;DHT22;9169;44.492;11.372;2023-03-31T11:34:57;28.00;35.70
18085;DHT22;9169;44.492;11.372;2023-03-31T11:40:38;28.40;34.70
18085;DHT22;9169;44.492;11.372;2023-03-31T11:43:13;28.20;34.10
18085;DHT22;9169;44.492;11.372;2023-03-31T11:45:48;28.00;34.10
18085;DHT22;9169;44.492;11.372;2023-03-31T11:48:25;27.60;33.90
18085;DHT22;9169;44.492;11.372;2023-03-31T11:50:58;27.30;33.70
18085;DHT22;9169;44.492;11.372;2023-03-31T11:53:32;26.90;33.80
18085;DHT22;9169;44.492;11.372;2023-03-31T11:56:02;26.60;33.90
18085;DHT22;9169;44.492;11.372;2023-03-31T11:58:36;26.40;34.10
18085;DHT22;9169;44.492;11.372;2023-03-31T12:01:11;26.10;34.10
18085;DHT22;9169;44.492;11.372;2023-03-31T12:03:50;25.80;34.10
18085;DHT22;9169;44.492;11.372;2023-03-31T12:06:22;25.60;34.30
18085;DHT22;9169;44.492;11.372;2023-03-31T12:09:02;25.30;34.50
18085;DHT22;9169;44.492;11.372;2023-03-31T12:11:39;25.00;34.70
18085;DHT22;9169;44.492;11.372;2023-03-31T12:14:24;24.70;34.70
18085;DHT22;9169;44.492;11.372;2023-03-31T12:16:59;24.50;35.00
18085;DHT22;9169;44.492;11.372;2023-03-31T12:19:33;24.30;35.20
18085;DHT22;9169;44.492;11.372;2023-03-31T12:22:09;24.10;35.60
18085;DHT22;9169;44.492;11.372;2023-03-31T12:24:41;24.00;35.90
18085;DHT22;9169;44.492;11.372;2023-03-31T12:27:13;24.00;36.10
18085;DHT22;9169;44.492;11.372;2023-03-31T12:29:47;23.90;36.10
18085;DHT22;9169;44.492;11.372;2023-03-31T12:32:22;23.70;36.00
18085;DHT22;9169;44.492;11.372;2023-03-31T12:34:57;23.60;36.20
18085;DHT22;9169;44.492;11.372;2023-03-31T12:37:54;23.40;36.30
18085;DHT22;9169;44.492;11.372;2023-03-31T12:40:37;23.30;36.70
18085;DHT22;9169;44.492;11.372;2023-03-31T12:43:24;23.20;37.00
18085;DHT22;9169;44.492;11.372;2023-03-31T12:46:02;23.20;37.30
18085;DHT22;9169;44.492;11.372;2023-03-31T12:48:57;23.10;37.30
18085;DHT22;9169;44.492;11.372;2023-03-31T12:51:43;23.10;37.60
18085;DHT22;9169;44.492;11.372;2023-03-31T12:57:18;23.30;38.40
18085;DHT22;9169;44.492;11.372;2023-03-31T13:00:18;23.30;37.80
18085;DHT22;9169;44.492;11.372;2023-03-31T13:02:49;23.40;38.10
18085;DHT22;9169;44.492;11.372;2023-03-31T13:05:43;23.50;38.00
18085;DHT22;9169;44.492;11.372;2023-03-31T13:11:16;24.00;38.40
18085;DHT22;9169;44.492;11.372;2023-03-31T13:13:56;24.40;38.40
18085;DHT22;9169;44.492;11.372;2023-03-31T13:16:26;24.70;38.20
18085;DHT22;9169;44.492;11.372;2023-03-31T13:18:56;24.90;37.60
18085;DHT22;9169;44.492;11.372;2023-03-31T13:21:25;25.10;37.60
18085;DHT22;9169;44.492;11.372;2023-03-31T13:23:58;25.20;37.20
18085;DHT22;9169;44.492;11.372;2023-03-31T13:26:38;25.30;37.30
18085;DHT22;9169;44.492;11.372;2023-03-31T13:29:23;25.60;37.20
18085;DHT22;9169;44.492;11.372;2023-03-31T13:32:05;25.80;36.80
18085;DHT22;9169;44.492;11.372;2023-03-31T13:34:39;25.80;36.60
18085;DHT22;9169;44.492;11.372;2023-03-31T13:37:16;25.80;36.30
18085;DHT22;9169;44.492;11.372;2023-03-31T13:40:06;25.60;36.10
18085;DHT22;9169;44.492;11.372;2023-03-31T13:43:15;25.40;36.10
18085;DHT22;9169;44.492;11.372;2023-03-31T13:46:13;25.20;36.10
18085;DHT22;9169;44.492;11.372;2023-03-31T13:49:00;25.00;36.10
18085;DHT22;9169;44.492;11.372;2023-03-31T13:51:40;24.80;36.20
18085;DHT22;9169;44.492;11.372;2023-03-31T13:54:38;24.60;36.30
18085;DHT22;9169;44.492;11.372;2023-03-31T13:57:30;24.30;36.30
18085;DHT22;9169;44.492;11.372;2023-03-31T14:00:26;24.20;36.50
18085;DHT22;9169;44.492;11.372;2023-03-31T14:03:22;24.00;36.60
18085;DHT22;9169;44.492;11.372;2023-03-31T14:05:58;23.90;36.70
18085;DHT22;9169;44.492;11.372;2023-03-31T14:08:39;23.90;36.90
18085;DHT22;9169;44.492;11.372;2023-03-31T14:11:16;23.80;37.20
18085;DHT22;9169;44.492;11.372;2023-03-31T14:13:58;23.90;38.10
18085;DHT22;9169;44.492;11.372;2023-03-31T14:16:28;24.30;38.80
18085;DHT22;9169;44.492;11.372;2023-03-31T14:19:18;24.70;38.30
18085;DHT22;9169;44.492;11.372;2023-03-31T14:22:00;25.20;38.50
18085;DHT22;9169;44.492;11.372;2023-03-31T14:24:35;25.70;38.10
18085;DHT22;9169;44.492;11.372;2023-03-31T14:27:13;25.90;37.20
18085;DHT22;9169;44.492;11.372;2023-03-31T14:29:51;25.90;36.70
18085;DHT22;9169;44.492;11.372;2023-03-31T14:32:30;25.80;36.20
18085;DHT22;9169;44.492;11.372;2023-03-31T14:35:18;25.60;35.90
18085;DHT22;9169;44.492;11.372;2023-03-31T14:37:53;25.30;35.90
18085;DHT22;9169;44.492;11.372;2023-03-31T14:40:23;25.10;35.90
18085;DHT22;9169;44.492;11.372;2023-03-31T14:42:52;24.80;36.00
18085;DHT22;9169;44.492;11.372;2023-03-31T14:45:22;24.60;36.10
18085;DHT22;9169;44.492;11.372;2023-03-31T14:47:55;24.40;36.20
18085;DHT22;9169;44.492;11.372;2023-03-31T14:50:32;24.30;36.30
18085;DHT22;9169;44.492;11.372;2023-03-31T14:53:02;24.10;36.50
18085;DHT22;9169;44.492;11.372;2023-03-31T14:55:33;24.00;36.60
18085;DHT22;9169;44.492;11.372;2023-03-31T14:58:12;23.80;36.60
18085;DHT22;9169;44.492;11.372;2023-03-31T15:00:44;23.70;36.80
18085;DHT22;9169;44.492;11.372;2023-03-31T15:03:14;23.60;37.00
18085;DHT22;9169;44.492;11.372;2023-03-31T15:05:45;23.50;37.10
18085;DHT22;9169;44.492;11.372;2023-03-31T15:08:17;23.50;37.20
18085;DHT22;9169;44.492;11.372;2023-03-31T15:10:49;23.40;37.30
18085;DHT22;9169;44.492;11.372;2023-03-31T15:13:31;23.30;37.40
18085;DHT22;9169;44.492;11.372;2023-03-31T15:16:18;23.30;37.60
18085;DHT22;9169;44.492;11.372;2023-03-31T15:18:47;23.30;37.80
18085;DHT22;9169;44.492;11.372;2023-03-31T15:21:20;23.20;37.60
18085;DHT22;9169;44.492;11.372;2023-03-31T15:23:51;23.20;37.80
18085;DHT22;9169;44.492;11.372;2023-03-31T15:26:23;23.20;37.80
18085;DHT22;9169;44.492;11.372;2023-03-31T15:29:02;23.20;37.90
18085;DHT22;9169;44.492;11.372;2023-03-31T15:31:32;23.10;37.90
18085;DHT22;9169;44.492;11.372;2023-03-31T15:34:12;23.10;38.00
18085;DHT22;9169;44.492;11.372;2023-03-31T15:36:43;23.00;38.00
18085;DHT22;9169;44.492;11.372;2023-03-31T15:39:12;23.00;38.40
18085;DHT22;9169;44.492;11.372;2023-03-31T15:41:45;22.90;37.80
18085;DHT22;9169;44.492;11.372;2023-03-31T15:44:37;22.80;38.30
18085;DHT22;9169;44.492;11.372;2023-03-31T15:47:17;22.70;38.00
18085;DHT22;9169;44.492;11.372;2023-03-31T15:49:50;22.60;38.00
18085;DHT22;9169;44.492;11.372;2023-03-31T15:52:24;22.60;38.00
18085;DHT22;9169;44.492;11.372;2023-03-31T15:54:54;22.50;38.10
18085;DHT22;9169;44.492;11.372;2023-03-31T15:57:33;22.50;38.10
18085;DHT22;9169;44.492;11.372;2023-03-31T16:00:03;22.40;38.20
18085;DHT22;9169;44.492;11.372;2023-03-31T16:02:42;22.40;38.20
18085;DHT22;9169;44.492;11.372;2023-03-31T16:05:34;22.40;38.30
18085;DHT22;9169;44.492;11.372;2023-03-31T16:08:18;22.30;38.40
18085;DHT22;9169;44.492;11.372;2023-03-31T16:10:48;22.30;38.40
18085;DHT22;9169;44.492;11.372;2023-03-31T16:13:22;22.20;38.30
18085;DHT22;9169;44.492;11.372;2023-03-31T16:15:52;22.20;38.70
18085;DHT22;9169;44.492;11.372;2023-03-31T16:18:28;22.30;39.40
18085;DHT22;9169;44.492;11.372;2023-03-31T16:21:01;22.40;39.10
18085;DHT22;9169;44.492;11.372;2023-03-31T16:23:34;22.50;38.70
18085;DHT22;9169;44.492;11.372;2023-03-31T16:26:07;22.50;38.30
18085;DHT22;9169;44.492;11.372;2023-03-31T16:28:37;22.50;38.10
18085;DHT22;9169;44.492;11.372;2023-03-31T16:31:27;22.40;38.00